sensor_id;sensor_type;location;lat;lon;timestamp;pressure;altitude;pressure_sealevel;temperature;humidity
20971;BME280;10644;48.834;10.088;2024-01-06T00:00:20;95456.44;;;11.18;60.45
20971;BME280;10644;48.834;10.088;2024-01-06T00:02:48;95462.41;;;11.18;60.00
20971;BME280;10644;48.834;10.088;2024-01-06T00:05:16;95455.28;;;11.11;60.17
20971;BME280;10644;48.834;10.088;2024-01-06T00:07:41;95448.44;;;11.00;60.29
20971;BME280;10644;48.834;10.088;2024-01-06T00:10:07;95465.06;;;11.06;59.68
20971;BME280;10644;48.834;10.088;2024-01-06T00:12:32;95465.75;;;11.08;60.05
20971;BME280;10644;48.834;10.088;2024-01-06T00:14:57;95457.16;;;11.09;59.67
20971;BME280;10644;48.834;10.088;2024-01-06T00:17:23;95466.59;;;11.08;59.55
20971;BME280;10644;48.834;10.088;2024-01-06T00:19:48;95468.22;;;11.09;60.10
20971;BME280;10644;48.834;10.088;2024-01-06T00:22:17;95460.97;;;10.92;59.83
20971;BME280;10644;48.834;10.088;2024-01-06T00:24:43;95460.19;;;10.92;60.09
20971;BME280;10644;48.834;10.088;2024-01-06T00:27:11;95453.06;;;10.84;60.44
20971;BME280;10644;48.834;10.088;2024-01-06T00:29:36;95456.09;;;10.89;60.36
20971;BME280;10644;48.834;10.088;2024-01-06T00:32:02;95457.72;;;10.90;60.05
20971;BME280;10644;48.834;10.088;2024-01-06T00:34:27;95464.28;;;10.94;60.12
20971;BME280;10644;48.834;10.088;2024-01-06T00:36:53;95461.22;;;10.89;59.97
20971;BME280;10644;48.834;10.088;2024-01-06T00:39:19;95460.50;;;10.76;59.74
20971;BME280;10644;48.834;10.088;2024-01-06T00:41:45;95468.06;;;10.67;59.73
20971;BME280;10644;48.834;10.088;2024-01-06T00:44:11;95465.94;;;10.61;60.32
20971;BME280;10644;48.834;10.088;2024-01-06T00:46:36;95476.78;;;10.64;59.81
20971;BME280;10644;48.834;10.088;2024-01-06T00:49:02;95464.69;;;10.66;59.52
20971;BME280;10644;48.834;10.088;2024-01-06T00:51:27;95461.69;;;10.72;59.21
20971;BME280;10644;48.834;10.088;2024-01-06T00:53:55;95472.59;;;10.63;59.56
20971;BME280;10644;48.834;10.088;2024-01-06T00:56:21;95463.63;;;10.58;59.69
20971;BME280;10644;48.834;10.088;2024-01-06T00:58:47;95458.81;;;10.53;59.60
20971;BME280;10644;48.834;10.088;2024-01-06T01:01:12;95470.22;;;10.60;60.00
20971;BME280;10644;48.834;10.088;2024-01-06T01:03:37;95464.91;;;10.63;59.90
20971;BME280;10644;48.834;10.088;2024-01-06T01:06:03;95470.41;;;10.70;59.67
20971;BME280;10644;48.834;10.088;2024-01-06T01:08:28;95471.19;;;10.70;59.54
20971;BME280;10644;48.834;10.088;2024-01-06T01:10:55;95476.09;;;10.73;59.66
20971;BME280;10644;48.834;10.088;2024-01-06T01:13:21;95470.16;;;10.73;59.04
20971;BME280;10644;48.834;10.088;2024-01-06T01:15:46;95485.31;;;10.76;59.29
20971;BME280;10644;48.834;10.088;2024-01-06T01:18:12;95482.25;;;10.60;59.57
20971;BME280;10644;48.834;10.088;2024-01-06T01:20:37;95481.63;;;10.45;59.50
20971;BME280;10644;48.834;10.088;2024-01-06T01:23:03;95486.94;;;10.42;59.83
20971;BME280;10644;48.834;10.088;2024-01-06T01:25:28;95492.94;;;10.54;59.53
20971;BME280;10644;48.834;10.088;2024-01-06T01:27:54;95490.03;;;10.58;59.40
20971;BME280;10644;48.834;10.088;2024-01-06T01:30:19;95487.72;;;10.66;59.30
20971;BME280;10644;48.834;10.088;2024-01-06T01:32:44;95488.19;;;10.71;59.22
20971;BME280;10644;48.834;10.088;2024-01-06T01:35:10;95485.66;;;10.82;58.69
20971;BME280;10644;48.834;10.088;2024-01-06T01:37:35;95480.31;;;10.85;58.66
20971;BME280;10644;48.834;10.088;2024-01-06T01:40:01;95472.53;;;10.87;58.76
20971;BME280;10644;48.834;10.088;2024-01-06T01:42:26;95470.06;;;10.85;58.77
20971;BME280;10644;48.834;10.088;2024-01-06T01:44:54;95479.03;;;10.91;58.86
20971;BME280;10644;48.834;10.088;2024-01-06T01:47:22;95492.66;;;10.91;58.80
20971;BME280;10644;48.834;10.088;2024-01-06T01:49:47;95486.25;;;10.75;58.98
20971;BME280;10644;48.834;10.088;2024-01-06T01:52:15;95491.00;;;10.79;59.10
20971;BME280;10644;48.834;10.088;2024-01-06T01:54:44;95494.25;;;10.70;58.80
20971;BME280;10644;48.834;10.088;2024-01-06T01:57:11;95507.63;;;10.74;58.71
20971;BME280;10644;48.834;10.088;2024-01-06T01:59:37;95492.84;;;10.66;58.78
20971;BME280;10644;48.834;10.088;2024-01-06T02:02:03;95500.53;;;10.66;59.05
20971;BME280;10644;48.834;10.088;2024-01-06T02:04:29;95501.91;;;10.70;58.95
20971;BME280;10644;48.834;10.088;2024-01-06T02:06:54;95499.56;;;10.56;58.82
20971;BME280;10644;48.834;10.088;2024-01-06T02:09:20;95497.41;;;10.39;59.22
20971;BME280;10644;48.834;10.088;2024-01-06T02:11:48;95500.53;;;10.32;59.50
20971;BME280;10644;48.834;10.088;2024-01-06T02:14:13;95506.13;;;10.37;59.76
20971;BME280;10644;48.834;10.088;2024-01-06T02:16:38;95502.75;;;10.36;59.49
20971;BME280;10644;48.834;10.088;2024-01-06T02:19:05;95501.50;;;10.42;59.46
20971;BME280;10644;48.834;10.088;2024-01-06T02:21:33;95502.88;;;10.46;59.27
20971;BME280;10644;48.834;10.088;2024-01-06T02:24:00;95512.13;;;10.59;59.49
20971;BME280;10644;48.834;10.088;2024-01-06T02:26:26;95511.47;;;10.68;59.06
20971;BME280;10644;48.834;10.088;2024-01-06T02:28:51;95510.91;;;10.76;58.89
20971;BME280;10644;48.834;10.088;2024-01-06T02:31:17;95503.94;;;10.78;58.87
20971;BME280;10644;48.834;10.088;2024-01-06T02:33:42;95518.72;;;10.85;58.54
20971;BME280;10644;48.834;10.088;2024-01-06T02:36:07;95515.25;;;10.86;58.37
20971;BME280;10644;48.834;10.088;2024-01-06T02:38:33;95516.84;;;10.76;59.03
20971;BME280;10644;48.834;10.088;2024-01-06T02:40:58;95522.31;;;10.72;59.15
20971;BME280;10644;48.834;10.088;2024-01-06T02:43:23;95522.66;;;10.67;58.73
20971;BME280;10644;48.834;10.088;2024-01-06T02:45:49;95531.47;;;10.63;59.56
20971;BME280;10644;48.834;10.088;2024-01-06T02:48:15;95533.00;;;10.42;59.79
20971;BME280;10644;48.834;10.088;2024-01-06T02:50:40;95524.25;;;10.34;60.46
20971;BME280;10644;48.834;10.088;2024-01-06T02:53:06;95525.56;;;10.39;60.00
20971;BME280;10644;48.834;10.088;2024-01-06T02:55:31;95543.84;;;10.46;60.17
20971;BME280;10644;48.834;10.088;2024-01-06T02:57:56;95534.66;;;10.43;60.26
20971;BME280;10644;48.834;10.088;2024-01-06T03:00:22;95535.84;;;10.50;59.77
20971;BME280;10644;48.834;10.088;2024-01-06T03:02:47;95537.25;;;10.54;59.89
20971;BME280;10644;48.834;10.088;2024-01-06T03:05:15;95535.41;;;10.56;59.52
20971;BME280;10644;48.834;10.088;2024-01-06T03:07:42;95546.09;;;10.50;59.91
20971;BME280;10644;48.834;10.088;2024-01-06T03:10:08;95543.19;;;10.31;59.97
20971;BME280;10644;48.834;10.088;2024-01-06T03:12:33;95544.38;;;10.27;60.48
20971;BME280;10644;48.834;10.088;2024-01-06T03:14:58;95549.25;;;10.30;60.91
20971;BME280;10644;48.834;10.088;2024-01-06T03:17:24;95553.03;;;10.01;61.64
20971;BME280;10644;48.834;10.088;2024-01-06T03:19:53;95561.22;;;9.94;61.44
20971;BME280;10644;48.834;10.088;2024-01-06T03:22:19;95545.97;;;9.56;62.19
20971;BME280;10644;48.834;10.088;2024-01-06T03:24:44;95556.00;;;9.59;61.84
20971;BME280;10644;48.834;10.088;2024-01-06T03:27:10;95556.91;;;9.58;62.42
20971;BME280;10644;48.834;10.088;2024-01-06T03:29:35;95562.94;;;9.57;62.70
20971;BME280;10644;48.834;10.088;2024-01-06T03:32:01;95554.47;;;9.44;62.75
20971;BME280;10644;48.834;10.088;2024-01-06T03:34:26;95563.16;;;9.42;63.01
20971;BME280;10644;48.834;10.088;2024-01-06T03:36:51;95562.44;;;9.52;62.87
20971;BME280;10644;48.834;10.088;2024-01-06T03:39:17;95567.44;;;9.66;62.57
20971;BME280;10644;48.834;10.088;2024-01-06T03:41:42;95558.84;;;9.67;62.65
20971;BME280;10644;48.834;10.088;2024-01-06T03:44:07;95556.63;;;9.50;62.75
20971;BME280;10644;48.834;10.088;2024-01-06T03:46:34;95564.47;;;9.47;62.72
20971;BME280;10644;48.834;10.088;2024-01-06T03:49:00;95564.88;;;9.54;62.99
20971;BME280;10644;48.834;10.088;2024-01-06T03:51:25;95556.00;;;9.59;62.47
20971;BME280;10644;48.834;10.088;2024-01-06T03:53:50;95550.34;;;9.67;62.77
20971;BME280;10644;48.834;10.088;2024-01-06T03:56:16;95562.69;;;9.85;62.40
20971;BME280;10644;48.834;10.088;2024-01-06T03:58:44;95552.03;;;9.91;62.04
20971;BME280;10644;48.834;10.088;2024-01-06T04:01:12;95548.09;;;10.11;61.88
20971;BME280;10644;48.834;10.088;2024-01-06T04:03:46;95545.22;;;10.15;61.36
20971;BME280;10644;48.834;10.088;2024-01-06T04:06:12;95549.94;;;10.21;61.22
20971;BME280;10644;48.834;10.088;2024-01-06T04:08:39;95545.44;;;10.12;61.35
20971;BME280;10644;48.834;10.088;2024-01-06T04:11:05;95559.38;;;10.08;61.76
20971;BME280;10644;48.834;10.088;2024-01-06T04:13:31;95568.38;;;10.01;61.23
20971;BME280;10644;48.834;10.088;2024-01-06T04:15:56;95566.66;;;9.89;62.02
20971;BME280;10644;48.834;10.088;2024-01-06T04:18:21;95563.34;;;9.76;62.64
20971;BME280;10644;48.834;10.088;2024-01-06T04:20:47;95554.81;;;9.88;62.44
20971;BME280;10644;48.834;10.088;2024-01-06T04:23:12;95550.19;;;9.93;61.90
20971;BME280;10644;48.834;10.088;2024-01-06T04:25:37;95555.19;;;10.07;61.38
20971;BME280;10644;48.834;10.088;2024-01-06T04:28:03;95562.41;;;10.13;61.28
20971;BME280;10644;48.834;10.088;2024-01-06T04:30:28;95561.22;;;10.06;61.43
20971;BME280;10644;48.834;10.088;2024-01-06T04:32:54;95565.31;;;10.09;61.08
20971;BME280;10644;48.834;10.088;2024-01-06T04:35:20;95566.50;;;10.16;61.36
20971;BME280;10644;48.834;10.088;2024-01-06T04:37:45;95578.00;;;10.10;61.31
20971;BME280;10644;48.834;10.088;2024-01-06T04:40:11;95568.78;;;9.95;61.54
20971;BME280;10644;48.834;10.088;2024-01-06T04:42:36;95570.34;;;9.85;61.67
20971;BME280;10644;48.834;10.088;2024-01-06T04:45:04;95574.09;;;9.92;62.20
20971;BME280;10644;48.834;10.088;2024-01-06T04:47:30;95569.41;;;9.99;61.79
20971;BME280;10644;48.834;10.088;2024-01-06T04:49:56;95572.72;;;9.88;61.61
20971;BME280;10644;48.834;10.088;2024-01-06T04:52:21;95581.72;;;9.81;61.85
20971;BME280;10644;48.834;10.088;2024-01-06T04:54:46;95579.22;;;9.92;62.00
20971;BME280;10644;48.834;10.088;2024-01-06T04:57:12;95589.47;;;9.92;61.70
20971;BME280;10644;48.834;10.088;2024-01-06T04:59:37;95584.56;;;9.89;61.97
20971;BME280;10644;48.834;10.088;2024-01-06T05:02:02;95581.44;;;9.73;62.14
20971;BME280;10644;48.834;10.088;2024-01-06T05:04:28;95578.47;;;9.67;62.74
20971;BME280;10644;48.834;10.088;2024-01-06T05:06:56;95590.13;;;9.71;62.72
20971;BME280;10644;48.834;10.088;2024-01-06T05:09:21;95593.78;;;9.79;62.51
20971;BME280;10644;48.834;10.088;2024-01-06T05:11:46;95598.28;;;9.88;61.68
20971;BME280;10644;48.834;10.088;2024-01-06T05:14:12;95590.88;;;9.96;61.61
20971;BME280;10644;48.834;10.088;2024-01-06T05:16:37;95597.88;;;9.94;61.41
20971;BME280;10644;48.834;10.088;2024-01-06T05:19:02;95596.22;;;9.93;61.20
20971;BME280;10644;48.834;10.088;2024-01-06T05:21:29;95600.75;;;9.77;62.22
20971;BME280;10644;48.834;10.088;2024-01-06T05:23:56;95602.72;;;9.61;62.43
20971;BME280;10644;48.834;10.088;2024-01-06T05:26:22;95607.72;;;9.38;62.95
20971;BME280;10644;48.834;10.088;2024-01-06T05:28:49;95605.59;;;9.44;62.56
20971;BME280;10644;48.834;10.088;2024-01-06T05:31:15;95602.63;;;9.50;62.30
20971;BME280;10644;48.834;10.088;2024-01-06T05:33:40;95601.69;;;9.51;62.20
20971;BME280;10644;48.834;10.088;2024-01-06T05:36:06;95609.78;;;9.45;62.67
20971;BME280;10644;48.834;10.088;2024-01-06T05:38:31;95611.00;;;9.52;62.69
20971;BME280;10644;48.834;10.088;2024-01-06T05:40:59;95626.53;;;9.49;62.60
20971;BME280;10644;48.834;10.088;2024-01-06T05:43:24;95619.06;;;9.46;62.64
20971;BME280;10644;48.834;10.088;2024-01-06T05:45:50;95627.66;;;9.45;62.75
20971;BME280;10644;48.834;10.088;2024-01-06T05:48:16;95631.25;;;9.55;62.36
20971;BME280;10644;48.834;10.088;2024-01-06T05:50:41;95630.03;;;9.36;62.80
20971;BME280;10644;48.834;10.088;2024-01-06T05:53:07;95630.13;;;9.34;62.66
20971;BME280;10644;48.834;10.088;2024-01-06T05:55:33;95635.63;;;9.28;63.23
20971;BME280;10644;48.834;10.088;2024-01-06T05:57:58;95634.69;;;9.29;62.11
20971;BME280;10644;48.834;10.088;2024-01-06T06:00:24;95645.13;;;9.26;62.78
20971;BME280;10644;48.834;10.088;2024-01-06T06:02:49;95638.00;;;9.31;62.53
20971;BME280;10644;48.834;10.088;2024-01-06T06:05:14;95646.38;;;9.46;62.07
20971;BME280;10644;48.834;10.088;2024-01-06T06:07:40;95645.66;;;9.44;61.84
20971;BME280;10644;48.834;10.088;2024-01-06T06:10:07;95648.81;;;9.47;62.10
20971;BME280;10644;48.834;10.088;2024-01-06T06:12:33;95649.03;;;9.57;62.49
20971;BME280;10644;48.834;10.088;2024-01-06T06:15:01;95655.97;;;9.55;61.57
20971;BME280;10644;48.834;10.088;2024-01-06T06:17:28;95654.94;;;9.45;61.64
20971;BME280;10644;48.834;10.088;2024-01-06T06:19:54;95645.78;;;9.42;61.69
20971;BME280;10644;48.834;10.088;2024-01-06T06:22:19;95654.44;;;9.27;61.88
20971;BME280;10644;48.834;10.088;2024-01-06T06:24:44;95657.78;;;9.28;62.22
20971;BME280;10644;48.834;10.088;2024-01-06T06:27:10;95661.97;;;9.16;62.27
20971;BME280;10644;48.834;10.088;2024-01-06T06:29:35;95658.59;;;9.16;62.82
20971;BME280;10644;48.834;10.088;2024-01-06T06:32:00;95665.63;;;9.12;62.84
20971;BME280;10644;48.834;10.088;2024-01-06T06:34:26;95662.06;;;9.15;62.25
20971;BME280;10644;48.834;10.088;2024-01-06T06:36:51;95670.75;;;9.12;62.26
20971;BME280;10644;48.834;10.088;2024-01-06T06:39:19;95676.16;;;9.08;62.01
20971;BME280;10644;48.834;10.088;2024-01-06T06:41:44;95674.31;;;8.97;62.42
20971;BME280;10644;48.834;10.088;2024-01-06T06:44:10;95675.94;;;8.98;62.54
20971;BME280;10644;48.834;10.088;2024-01-06T06:46:36;95661.72;;;8.94;62.31
20971;BME280;10644;48.834;10.088;2024-01-06T06:49:03;95675.41;;;8.93;62.28
20971;BME280;10644;48.834;10.088;2024-01-06T06:51:31;95680.00;;;8.88;62.71
20971;BME280;10644;48.834;10.088;2024-01-06T06:53:56;95690.16;;;8.76;62.76
20971;BME280;10644;48.834;10.088;2024-01-06T06:56:22;95695.47;;;8.73;62.97
20971;BME280;10644;48.834;10.088;2024-01-06T06:58:48;95701.13;;;8.90;62.78
20971;BME280;10644;48.834;10.088;2024-01-06T07:01:14;95702.72;;;9.05;62.18
20971;BME280;10644;48.834;10.088;2024-01-06T07:03:43;95705.66;;;8.99;61.79
20971;BME280;10644;48.834;10.088;2024-01-06T07:06:12;95698.97;;;8.84;62.49
20971;BME280;10644;48.834;10.088;2024-01-06T07:08:38;95707.69;;;8.68;63.32
20971;BME280;10644;48.834;10.088;2024-01-06T07:11:04;95715.59;;;8.77;62.91
20971;BME280;10644;48.834;10.088;2024-01-06T07:13:29;95717.81;;;8.69;62.74
20971;BME280;10644;48.834;10.088;2024-01-06T07:15:55;95715.09;;;8.58;63.68
20971;BME280;10644;48.834;10.088;2024-01-06T07:18:22;95712.72;;;8.55;63.72
20971;BME280;10644;48.834;10.088;2024-01-06T07:20:50;95714.03;;;8.48;63.68
20971;BME280;10644;48.834;10.088;2024-01-06T07:23:15;95710.31;;;8.66;63.09
20971;BME280;10644;48.834;10.088;2024-01-06T07:25:40;95718.31;;;8.74;63.22
20971;BME280;10644;48.834;10.088;2024-01-06T07:28:08;95722.00;;;8.70;62.95
20971;BME280;10644;48.834;10.088;2024-01-06T07:30:34;95732.22;;;8.70;63.24
20971;BME280;10644;48.834;10.088;2024-01-06T07:32:59;95720.72;;;8.63;63.50
20971;BME280;10644;48.834;10.088;2024-01-06T07:35:25;95722.00;;;8.70;63.12
20971;BME280;10644;48.834;10.088;2024-01-06T07:37:50;95716.19;;;8.95;62.30
20971;BME280;10644;48.834;10.088;2024-01-06T07:40:16;95722.84;;;9.10;62.07
20971;BME280;10644;48.834;10.088;2024-01-06T07:42:44;95725.63;;;9.19;61.74
20971;BME280;10644;48.834;10.088;2024-01-06T07:45:10;95725.84;;;9.16;61.08
20971;BME280;10644;48.834;10.088;2024-01-06T07:47:35;95724.00;;;9.18;61.61
20971;BME280;10644;48.834;10.088;2024-01-06T07:50:01;95723.69;;;9.10;61.93
20971;BME280;10644;48.834;10.088;2024-01-06T07:52:26;95727.47;;;9.17;62.04
20971;BME280;10644;48.834;10.088;2024-01-06T07:54:52;95734.81;;;9.09;62.01
20971;BME280;10644;48.834;10.088;2024-01-06T07:57:20;95738.72;;;8.88;62.49
20971;BME280;10644;48.834;10.088;2024-01-06T07:59:46;95743.38;;;9.08;62.11
20971;BME280;10644;48.834;10.088;2024-01-06T08:02:11;95740.81;;;9.08;61.94
20971;BME280;10644;48.834;10.088;2024-01-06T08:04:36;95743.38;;;9.08;61.84
20971;BME280;10644;48.834;10.088;2024-01-06T08:07:02;95739.31;;;9.18;61.77
20971;BME280;10644;48.834;10.088;2024-01-06T08:09:29;95737.69;;;9.17;61.73
20971;BME280;10644;48.834;10.088;2024-01-06T08:11:54;95744.03;;;9.24;61.63
20971;BME280;10644;48.834;10.088;2024-01-06T08:14:20;95742.75;;;9.31;61.45
20971;BME280;10644;48.834;10.088;2024-01-06T08:16:45;95736.31;;;9.38;61.59
20971;BME280;10644;48.834;10.088;2024-01-06T08:19:11;95741.22;;;9.41;61.32
20971;BME280;10644;48.834;10.088;2024-01-06T08:21:36;95739.97;;;9.34;61.19
20971;BME280;10644;48.834;10.088;2024-01-06T08:24:01;95747.56;;;9.36;61.05
20971;BME280;10644;48.834;10.088;2024-01-06T08:26:27;95734.75;;;9.23;61.59
20971;BME280;10644;48.834;10.088;2024-01-06T08:28:53;95754.50;;;9.34;61.50
20971;BME280;10644;48.834;10.088;2024-01-06T08:31:18;95748.88;;;9.29;60.96
20971;BME280;10644;48.834;10.088;2024-01-06T08:33:43;95749.34;;;9.21;61.62
20971;BME280;10644;48.834;10.088;2024-01-06T08:36:09;95750.06;;;9.23;61.95
20971;BME280;10644;48.834;10.088;2024-01-06T08:38:34;95756.53;;;9.29;61.14
20971;BME280;10644;48.834;10.088;2024-01-06T08:41:00;95761.53;;;9.30;61.41
20971;BME280;10644;48.834;10.088;2024-01-06T08:43:26;95758.00;;;9.45;61.10
20971;BME280;10644;48.834;10.088;2024-01-06T08:45:51;95771.31;;;9.50;61.17
20971;BME280;10644;48.834;10.088;2024-01-06T08:48:19;95763.31;;;9.42;60.65
20971;BME280;10644;48.834;10.088;2024-01-06T08:50:47;95760.41;;;9.34;61.34
20971;BME280;10644;48.834;10.088;2024-01-06T08:53:12;95762.78;;;9.37;61.91
20971;BME280;10644;48.834;10.088;2024-01-06T08:55:38;95767.50;;;9.43;61.12
20971;BME280;10644;48.834;10.088;2024-01-06T08:58:03;95768.22;;;9.45;60.80
20971;BME280;10644;48.834;10.088;2024-01-06T09:00:29;95762.53;;;9.54;61.03
20971;BME280;10644;48.834;10.088;2024-01-06T09:02:54;95765.97;;;9.53;60.57
20971;BME280;10644;48.834;10.088;2024-01-06T09:05:20;95775.19;;;9.43;61.37
20971;BME280;10644;48.834;10.088;2024-01-06T09:07:45;95777.63;;;9.45;60.90
20971;BME280;10644;48.834;10.088;2024-01-06T09:10:16;95779.94;;;9.35;60.61
20971;BME280;10644;48.834;10.088;2024-01-06T09:12:41;95784.72;;;9.27;61.15
20971;BME280;10644;48.834;10.088;2024-01-06T09:15:07;95784.72;;;9.27;61.22
20971;BME280;10644;48.834;10.088;2024-01-06T09:17:32;95776.81;;;9.44;61.49
20971;BME280;10644;48.834;10.088;2024-01-06T09:19:59;95792.38;;;9.54;61.24
20971;BME280;10644;48.834;10.088;2024-01-06T09:22:25;95784.59;;;9.55;60.91
20971;BME280;10644;48.834;10.088;2024-01-06T09:24:50;95793.38;;;9.51;60.50
20971;BME280;10644;48.834;10.088;2024-01-06T09:27:16;95790.66;;;9.54;60.97
20971;BME280;10644;48.834;10.088;2024-01-06T09:29:41;95787.75;;;9.46;60.67
20971;BME280;10644;48.834;10.088;2024-01-06T09:32:08;95792.31;;;9.41;61.12
20971;BME280;10644;48.834;10.088;2024-01-06T09:34:33;95795.94;;;9.51;61.04
20971;BME280;10644;48.834;10.088;2024-01-06T09:36:58;95803.03;;;9.60;60.91
20971;BME280;10644;48.834;10.088;2024-01-06T09:39:24;95804.56;;;9.75;60.39
20971;BME280;10644;48.834;10.088;2024-01-06T09:41:49;95802.94;;;9.74;60.35
20971;BME280;10644;48.834;10.088;2024-01-06T09:44:14;95811.03;;;9.81;60.10
20971;BME280;10644;48.834;10.088;2024-01-06T09:46:41;95810.84;;;9.84;59.96
20971;BME280;10644;48.834;10.088;2024-01-06T09:49:08;95808.19;;;9.85;59.60
20971;BME280;10644;48.834;10.088;2024-01-06T09:51:36;95805.38;;;9.63;59.46
20971;BME280;10644;48.834;10.088;2024-01-06T09:54:04;95809.19;;;9.44;60.39
20971;BME280;10644;48.834;10.088;2024-01-06T09:56:33;95819.91;;;9.36;60.60
20971;BME280;10644;48.834;10.088;2024-01-06T09:58:59;95815.19;;;9.30;60.60
20971;BME280;10644;48.834;10.088;2024-01-06T10:01:24;95817.16;;;9.39;60.71
20971;BME280;10644;48.834;10.088;2024-01-06T10:03:50;95814.22;;;9.45;60.75
20971;BME280;10644;48.834;10.088;2024-01-06T10:06:17;95812.72;;;9.55;59.83
20971;BME280;10644;48.834;10.088;2024-01-06T10:08:51;95822.59;;;9.74;59.84
20971;BME280;10644;48.834;10.088;2024-01-06T10:11:26;95813.66;;;9.67;59.63
20971;BME280;10644;48.834;10.088;2024-01-06T10:13:54;95811.63;;;9.59;59.54
20971;BME280;10644;48.834;10.088;2024-01-06T10:16:20;95813.25;;;9.60;59.43
20971;BME280;10644;48.834;10.088;2024-01-06T10:18:47;95808.31;;;9.57;59.94
20971;BME280;10644;48.834;10.088;2024-01-06T10:21:13;95822.03;;;9.56;59.73
20971;BME280;10644;48.834;10.088;2024-01-06T10:23:42;95817.31;;;9.50;59.96
20971;BME280;10644;48.834;10.088;2024-01-06T10:26:12;95813.44;;;9.57;60.06
20971;BME280;10644;48.834;10.088;2024-01-06T10:28:38;95798.88;;;9.45;59.39
20971;BME280;10644;48.834;10.088;2024-01-06T10:31:03;95807.28;;;9.47;59.59
20971;BME280;10644;48.834;10.088;2024-01-06T10:33:28;95807.91;;;9.51;59.43
20971;BME280;10644;48.834;10.088;2024-01-06T10:35:54;95806.03;;;9.40;59.42
20971;BME280;10644;48.834;10.088;2024-01-06T10:38:23;95803.59;;;9.51;59.50
20971;BME280;10644;48.834;10.088;2024-01-06T10:43:25;95798.72;;;9.48;58.83
20971;BME280;10644;48.834;10.088;2024-01-06T10:45:51;95806.25;;;9.37;59.36
20971;BME280;10644;48.834;10.088;2024-01-06T10:48:19;95804.97;;;9.30;59.34
20971;BME280;10644;48.834;10.088;2024-01-06T10:50:49;95797.16;;;9.19;59.43
20971;BME280;10644;48.834;10.088;2024-01-06T10:53:14;95803.94;;;9.20;60.07
20971;BME280;10644;48.834;10.088;2024-01-06T10:55:42;95801.00;;;9.26;60.00
20971;BME280;10644;48.834;10.088;2024-01-06T10:58:11;95792.94;;;9.32;59.56
20971;BME280;10644;48.834;10.088;2024-01-06T11:00:37;95792.94;;;9.32;59.33
20971;BME280;10644;48.834;10.088;2024-01-06T11:03:04;95787.44;;;9.38;59.51
20971;BME280;10644;48.834;10.088;2024-01-06T11:05:33;95786.06;;;9.33;59.63
20971;BME280;10644;48.834;10.088;2024-01-06T11:08:01;95773.59;;;9.28;58.98
20971;BME280;10644;48.834;10.088;2024-01-06T11:10:27;95786.38;;;9.28;59.51
20971;BME280;10644;48.834;10.088;2024-01-06T11:15:43;95787.72;;;9.34;59.15
20971;BME280;10644;48.834;10.088;2024-01-06T11:21:16;95788.44;;;9.36;59.37
20971;BME280;10644;48.834;10.088;2024-01-06T11:24:13;95787.78;;;9.20;60.05
20971;BME280;10644;48.834;10.088;2024-01-06T11:26:43;95782.97;;;9.01;60.29
20971;BME280;10644;48.834;10.088;2024-01-06T11:29:09;95789.94;;;8.99;60.53
20971;BME280;10644;48.834;10.088;2024-01-06T11:31:34;95792.97;;;8.92;60.50
20971;BME280;10644;48.834;10.088;2024-01-06T11:34:19;95788.84;;;9.03;60.79
20971;BME280;10644;48.834;10.088;2024-01-06T11:36:48;95788.09;;;9.01;60.95
20971;BME280;10644;48.834;10.088;2024-01-06T11:39:40;95788.94;;;9.02;61.57
20971;BME280;10644;48.834;10.088;2024-01-06T11:42:08;95787.59;;;9.23;60.90
20971;BME280;10644;48.834;10.088;2024-01-06T11:44:37;95785.50;;;9.15;60.69
20971;BME280;10644;48.834;10.088;2024-01-06T11:47:04;95785.91;;;9.09;60.99
20971;BME280;10644;48.834;10.088;2024-01-06T11:49:30;95780.78;;;9.09;61.25
20971;BME280;10644;48.834;10.088;2024-01-06T11:51:59;95785.31;;;9.18;61.51
20971;BME280;10644;48.834;10.088;2024-01-06T11:54:25;95785.22;;;8.93;61.45
20971;BME280;10644;48.834;10.088;2024-01-06T11:56:50;95782.50;;;8.82;62.26
20971;BME280;10644;48.834;10.088;2024-01-06T11:59:18;95772.28;;;8.82;61.65
20971;BME280;10644;48.834;10.088;2024-01-06T12:01:44;95781.03;;;8.92;61.79
20971;BME280;10644;48.834;10.088;2024-01-06T12:04:13;95774.84;;;8.82;61.85
20971;BME280;10644;48.834;10.088;2024-01-06T12:06:39;95770.44;;;8.84;61.88
20971;BME280;10644;48.834;10.088;2024-01-06T12:09:10;95770.81;;;8.78;62.19
20971;BME280;10644;48.834;10.088;2024-01-06T12:11:35;95761.00;;;8.72;61.95
20971;BME280;10644;48.834;10.088;2024-01-06T12:14:02;95768.56;;;8.74;62.13
20971;BME280;10644;48.834;10.088;2024-01-06T12:16:28;95762.94;;;8.95;61.57
20971;BME280;10644;48.834;10.088;2024-01-06T12:18:54;95762.63;;;9.14;61.40
20971;BME280;10644;48.834;10.088;2024-01-06T12:21:22;95747.22;;;9.01;61.35
20971;BME280;10644;48.834;10.088;2024-01-06T12:23:48;95762.38;;;9.04;61.40
20971;BME280;10644;48.834;10.088;2024-01-06T12:26:16;95760.88;;;9.14;61.57
20971;BME280;10644;48.834;10.088;2024-01-06T12:28:44;95759.44;;;9.10;61.55
20971;BME280;10644;48.834;10.088;2024-01-06T12:31:10;95774.41;;;9.02;62.03
20971;BME280;10644;48.834;10.088;2024-01-06T12:33:40;95766.25;;;8.83;63.03
20971;BME280;10644;48.834;10.088;2024-01-06T12:36:09;95764.84;;;8.65;64.52
20971;BME280;10644;48.834;10.088;2024-01-06T12:38:36;95769.50;;;8.59;64.71
20971;BME280;10644;48.834;10.088;2024-01-06T12:41:04;95761.75;;;8.60;64.85
20971;BME280;10644;48.834;10.088;2024-01-06T12:43:29;95768.31;;;8.64;64.78
20971;BME280;10644;48.834;10.088;2024-01-06T12:45:55;95763.63;;;8.71;64.88
20971;BME280;10644;48.834;10.088;2024-01-06T12:48:22;95767.47;;;8.78;64.79
20971;BME280;10644;48.834;10.088;2024-01-06T12:50:50;95769.19;;;8.77;65.13
20971;BME280;10644;48.834;10.088;2024-01-06T12:53:15;95773.53;;;8.89;64.70
20971;BME280;10644;48.834;10.088;2024-01-06T12:55:43;95767.19;;;8.82;64.59
20971;BME280;10644;48.834;10.088;2024-01-06T12:58:08;95765.97;;;8.88;64.29
20971;BME280;10644;48.834;10.088;2024-01-06T13:00:36;95759.53;;;8.82;64.33